Centre Hospitalier Heliport

FR-0137 · Manica, Normandia, Francia

Storia di METAR FR-0137 · Centre Hospitalier Heliport

Di seguito sono riportati i METAR degli ultimi giorni. Seleziona un anno per sfogliare i METAR più vecchi, dall'anno 2007 in poi.

15 luglio 2024

Tempo Codice Tempo meteorologico Temp. Vista Base nuvolosa Vento METAR/SPECI
01:00
V
13 °C 10 km+ - 130° 130° 4 kt METAR LFRC 142300Z AUTO 13004KT CAVOK 13/11 Q1012
00:30
V
13 °C 10 km+ - 120° 120° 5 kt METAR LFRC 142230Z AUTO 12005KT CAVOK 13/12 Q1012
00:00
V
13 °C 10 km+ - 100° 100° 5 kt METAR LFRC 142200Z AUTO 10005KT CAVOK 13/12 Q1012

14 luglio 2024

Tempo Codice Tempo meteorologico Temp. Vista Base nuvolosa Vento METAR/SPECI
23:30
V
13 °C 10 km+ - 100° 100° 5 kt METAR LFRC 142130Z AUTO 10005KT CAVOK 13/12 Q1012
23:00
V
13 °C 10 km+ - 090° 090° 5 kt METAR LFRC 142100Z AUTO 09005KT CAVOK 13/11 Q1012
22:30
V
13 °C 10 km+ - 090° 090° 4 kt METAR LFRC 142030Z AUTO 09004KT CAVOK 13/11 Q1012
22:00
V
14 °C 10 km+ - 070° 070° 5 kt METAR LFRC 142000Z AUTO 07005KT CAVOK 14/11 Q1012
21:30
V
15 °C 10 km+ - 060° 060° 4 kt METAR LFRC 141930Z AUTO 06004KT CAVOK 15/12 Q1012
21:00
V
16 °C 10 km+ - 050° 050° 4 kt METAR LFRC 141900Z AUTO 05004KT 020V080 CAVOK 16/12 Q1012
20:30
V
17 °C 10 km+ - 030° 030° 4 kt METAR LFRC 141830Z AUTO 03004KT 350V070 CAVOK 17/12 Q1012
20:00
V
17 °C 10 km+ - 040° 040° 5 kt METAR LFRC 141800Z AUTO 04005KT 360V070 CAVOK 17/12 Q1012
19:30
V
18 °C 10 km+ - 020° 020° 5 kt METAR LFRC 141730Z AUTO 02005KT 9999 FEW032 18/13 Q1012
19:00
V
18 °C 10 km+ 3.300 ft 020° 020° 6 kt METAR LFRC 141700Z AUTO 02006KT 350V050 9999 SCT026 BKN033 BKN039 18/13 Q1012 NOSIG
18:30
M
19 °C 10 km+ 2.400 ft 030° 030° 5 kt METAR LFRC 141630Z AUTO 03005KT 010V070 9999 BKN024 OVC032 19/14 Q1012 NOSIG
18:00
M
19 °C 10 km+ 2.100 ft 030° 030° 5 kt METAR LFRC 141600Z AUTO 03005KT 350V070 9999 BKN021 BKN026 OVC033 19/14 Q1013 TEMPO BKN010
17:30
M
19 °C 10 km+ 3.000 ft 020° 020° 5 kt METAR LFRC 141530Z AUTO 02005KT 350V060 9999 FEW014 SCT023 BKN030 19/15 Q1012 TEMPO BKN010
17:00
M
18 °C 10 km+ 2.400 ft 360° 360° 6 kt METAR LFRC 141500Z AUTO 36006KT 320V040 9999 SCT014 BKN024 BKN030 18/14 Q1013 TEMPO BKN010
16:30
M
18 °C 10 km+ 1.900 ft 020° 020° 7 kt METAR LFRC 141430Z AUTO 02007KT 340V050 9999 BKN019 BKN028 OVC037 18/15 Q1012 TEMPO BKN010
16:00
V
19 °C 9 km 3.200 ft 360° 360° 6 kt METAR LFRC 141400Z AUTO 36006KT 320V040 9000 FEW014 BKN032 BKN041 19/15 Q1013 TEMPO BKN010
15:30
M
18 °C 10 km+ 2.200 ft 050° 050° 3 kt METAR LFRC 141330Z AUTO 05003KT 320V130 9999 SCT011 BKN022 BKN027 18/15 Q1013 TEMPO BKN010
15:00
I
18 °C 10 km+ 900 ft 050° 050° 6 kt METAR LFRC 141300Z AUTO 05006KT 010V100 9999 BKN009 BKN043 BKN150 18/15 Q1012 TEMPO BKN010
14:30
M
17 °C 10 km+ 2.500 ft 040° 040° 7 kt METAR LFRC 141230Z AUTO 04007KT 360V070 9999 SCT010 BKN025 BKN044 17/14 Q1012 TEMPO BKN010
14:00
V
17 °C 10 km+ 16.000 ft 030° 030° 6 kt METAR LFRC 141200Z AUTO 03006KT 360V070 9999 FEW014 BKN160 17/14 Q1013 TEMPO BKN010
13:30
V
18 °C 10 km+ 4.900 ft 010° 010° 3 kt METAR LFRC 141130Z AUTO 01003KT 320V060 9999 FEW015 SCT030 BKN049 18/15 Q1013 TEMPO BKN010
13:00
V
17 °C 10 km+ 3.900 ft 360° 360° 4 kt METAR LFRC 141100Z AUTO 36004KT 310V070 9999 FEW011 BKN039 BKN052 17/14 Q1013 NOSIG
12:30
V
17 °C 10 km+ 15.000 ft 360° 360° 4 kt METAR LFRC 141030Z AUTO 36004KT 300V060 9999 FEW008 BKN150 17/14 Q1013 NOSIG
12:00
V
16 °C 10 km+ 15.000 ft 010° 010° 4 kt METAR LFRC 141000Z AUTO 01004KT 350V050 9999 FEW032 BKN150 BKN180 16/14 Q1013 TEMPO BKN014
11:30
V
16 °C 10 km+ 3.100 ft 040° 040° 3 kt METAR LFRC 140930Z AUTO 04003KT 340V070 9999 BKN031 BKN038 16/14 Q1013 TEMPO BKN014
11:00
V
17 °C 10 km+ 3.300 ft Var Var 3 kt METAR LFRC 140900Z AUTO VRB03KT 9999 FEW018 OVC033 17/14 Q1013 TEMPO BKN014
10:30
V
18 °C 10 km+ 3.200 ft Var Var 2 kt METAR LFRC 140830Z AUTO VRB02KT 9999 BKN032 BKN038 OVC220 18/14 Q1013 TEMPO BKN014
10:00
V
18 °C 10 km+ - Var Var 2 kt METAR LFRC 140800Z AUTO VRB02KT CAVOK 18/12 Q1013 TEMPO BKN008
09:30
V
17 °C 10 km+ - Var Var 3 kt METAR LFRC 140730Z AUTO VRB03KT 9999 FEW040 17/13 Q1013 TEMPO BKN008
09:00
V
15 °C 10 km+ - Var Var 2 kt METAR LFRC 140700Z AUTO VRB02KT CAVOK 15/13 Q1013 TEMPO BKN008
08:30
V
14 °C 10 km+ - 130° 130° 2 kt METAR LFRC 140630Z AUTO 13002KT 9999 FEW041 14/13 Q1013 TEMPO BKN008
08:00
V
14 °C 10 km+ - 360° 360° 0 kt METAR LFRC 140600Z AUTO 00000KT CAVOK 14/14 Q1013 NOSIG
07:30
L
12 °C 550 m - 360° 360° 0 kt METAR LFRC 140530Z AUTO 00000KT 0550 R28/0900U FG NSC 12/12 Q1013 BECMG 9999 NSW
07:00
L
10 °C 250 m - 160° 160° 2 kt METAR LFRC 140500Z AUTO 16002KT 0300 0250 R28/0375N FG VV/// 10/10 Q1013
06:30
L
10 °C 400 m - 200° 200° 2 kt METAR LFRC 140430Z AUTO 20002KT 0400 R28/0800U FG VV/// 10/10 Q1013
06:00
L
9 °C 400 m - 200° 200° 2 kt METAR LFRC 140400Z AUTO 20002KT 0400 R28/0400D FG VV/// 09/08 Q1013
05:30
L
10 °C 400 m - 140° 140° 2 kt METAR LFRC 140330Z AUTO 14002KT 0400 R28/0400D FG NSC 10/10 Q1013
05:00
L
11 °C 550 m - Var Var 1 kt METAR LFRC 140300Z AUTO VRB01KT 0550 R28/0700D FG NSC 11/11 Q1013
04:30
L
10 °C 550 m - 270° 270° 3 kt METAR LFRC 140230Z AUTO 27003KT 2300 0550 R28/P2000 BCFG NSC 10/10 Q1013
04:00
M
11 °C 5 km - 240° 240° 3 kt METAR LFRC 140200Z AUTO 24003KT 5000 BR NSC 11/10 Q1013
03:30
M
11 °C 6 km - 220° 220° 5 kt METAR LFRC 140130Z AUTO 22005KT 6000 NSC 11/11 Q1013
03:00
I
11 °C 1,7 km - 230° 230° 3 kt METAR LFRC 140100Z AUTO 23003KT 3700 1700 BR NSC 11/11 Q1013
02:30
M
11 °C 5 km - 210° 210° 4 kt METAR LFRC 140030Z AUTO 21004KT 5000 BR NSC 11/11 Q1014
02:00
V
11 °C 8 km - 190° 190° 5 kt METAR LFRC 140000Z AUTO 19005KT 8000 NSC 11/11 Q1014
01:30
L
10 °C 4,3 km - 190° 190° 5 kt METAR LFRC 132330Z AUTO 19005KT 4300 BR VV/// 10/10 Q1014
01:00
L
10 °C 600 m - 190° 190° 5 kt METAR LFRC 132300Z AUTO 19005KT 0800 0600 R28/1200D FG NSC 10/10 Q1014
00:30
L
10 °C 500 m - 200° 200° 2 kt METAR LFRC 132230Z AUTO 20002KT 2900 0500 R28/P2000 BCFG NSC 10/10 Q1014
00:00
L
11 °C 800 m - 170° 170° 1 kt METAR LFRC 132200Z AUTO 17001KT 2300 0800 R28/P2000 BCFG NSC 11/11 Q1014

13 luglio 2024

Tempo Codice Tempo meteorologico Temp. Vista Base nuvolosa Vento METAR/SPECI
23:30
I
11 °C 4,4 km - 360° 360° 0 kt METAR LFRC 132130Z AUTO 00000KT 4400 BR NSC 11/11 Q1014
23:00
L
12 °C 800 m - 360° 360° 0 kt METAR LFRC 132100Z AUTO 00000KT 4000 0800 R28/P2000 BCFG NSC 12/11 Q1014
22:30
V
12 °C 9 km - 020° 020° 2 kt METAR LFRC 132030Z AUTO 02002KT 9000 NSC 12/11 Q1014
22:00
V
14 °C 10 km+ - 360° 360° 1 kt METAR LFRC 132000Z AUTO 36001KT CAVOK 14/12 Q1014
21:30
V
16 °C 10 km+ - 050° 050° 2 kt METAR LFRC 131930Z AUTO 05002KT 9999 FEW024 16/13 Q1014
21:00
M
16 °C 10 km+ 1.900 ft 010° 010° 4 kt METAR LFRC 131900Z AUTO 01004KT 9999 BKN019 BKN024 BKN031 16/13 Q1014
20:30
M
17 °C 10 km+ 1.700 ft 350° 350° 4 kt METAR LFRC 131830Z AUTO 35004KT 310V030 9999 BKN017 BKN022 17/13 Q1014
20:00
M
18 °C 10 km+ 1.500 ft 320° 320° 4 kt METAR LFRC 131800Z AUTO 32004KT 260V030 9999 BKN015 OVC025 18/13 Q1014
19:30
M
17 °C 10 km+ 1.800 ft Var Var 3 kt METAR LFRC 131730Z AUTO VRB03KT 9999 BKN018 BKN027 OVC032 17/13 Q1014
19:00
M
18 °C 10 km+ 1.900 ft Var Var 4 kt METAR LFRC 131700Z AUTO VRB04KT 9999 BKN019 18/14 Q1014
18:30
V
18 °C 10 km+ - 320° 320° 3 kt METAR LFRC 131630Z AUTO 32003KT 250V030 9999 FEW028 18/13 Q1014
18:00
V
18 °C 10 km+ - 310° 310° 4 kt METAR LFRC 131600Z AUTO 31004KT 240V360 9999 FEW018/// SCT094/// ///TCU 18/14 Q1014
17:30
V
18 °C 10 km+ 9.800 ft 300° 300° 5 kt METAR LFRC 131530Z AUTO 30005KT 250V350 9999 FEW017/// BKN098/// //////TCU 18/13 Q1014
17:00
V
17 °C 10 km+ - 010° 010° 4 kt METAR LFRC 131500Z AUTO 01004KT 320V060 CAVOK 17/13 Q1014
16:30
V
16 °C 10 km+ 10.000 ft 330° 330° 4 kt METAR LFRC 131430Z AUTO 33004KT 290V360 9999 FEW015/// SCT076/// OVC100/// //////TCU 16/13 Q1014
16:00
V
17 °C 10 km+ 6.600 ft 310° 310° 5 kt METAR LFRC 131400Z AUTO 31005KT 9999 SCT017/// SCT033/// BKN066/// //////TCU 17/13 Q1015
15:30
V
17 °C 10 km+ 7.200 ft 320° 320° 4 kt METAR LFRC 131330Z AUTO 32004KT 280V010 9999 FEW009/// BKN072/// BKN084/// ///CB 17/15 Q1015
15:00
V
17 °C 10 km+ 4.300 ft 360° 360° 4 kt METAR LFRC 131300Z AUTO 36004KT 280V040 9999 FEW009/// BKN043/// BKN049/// ///CB 17/15 Q1015
14:30
V
15 °C 10 km+ 4.100 ft Var Var 2 kt METAR LFRC 131230Z AUTO VRB02KT 9999 FEW007/// SCT028/// BKN041/// ///CB 15/13 Q1015
14:00
M
15 °C 6 km 5.400 ft 250° 250° 5 kt METAR LFRC 131200Z AUTO 25005KT 230V290 6000 -RA FEW036/// SCT046/// BKN054/// //////TCU 15/14 Q1015
13:30
M
15 °C 10 km+ 1.800 ft 300° 300° 5 kt METAR LFRC 131130Z AUTO 30005KT 260V340 9999 SCT012/// BKN018/// BKN032/// ///CB 15/14 Q1015
13:00
V
16 °C 10 km+ 6.800 ft Var Var 3 kt METAR LFRC 131100Z AUTO VRB03KT 9999 FEW013/// SCT043/// BKN068/// ///TCU 16/14 Q1015
12:30
V
15 °C 10 km+ 4.100 ft 310° 310° 4 kt METAR LFRC 131030Z AUTO 31004KT 290V350 9999 FEW006 BKN041 BKN068 15/13 Q1015
12:00
M
15 °C 6 km 2.400 ft Var Var 3 kt METAR LFRC 131000Z AUTO VRB03KT 6000 -RA FEW013/// SCT019/// BKN024/// //////CB 15/14 Q1015
11:30
M
14 °C 8 km 1.400 ft 020° 020° 5 kt METAR LFRC 130930Z AUTO 02005KT 340V050 8000 -RA BKN014/// BKN021/// BKN029/// ///TCU 14/13 Q1015
11:00
I
15 °C 4,5 km 2.800 ft 200° 200° 5 kt METAR LFRC 130900Z AUTO 20005KT 180V240 9999 4500 FEW013/// SCT023/// BKN028/// ///CB 15/13 Q1015
10:30
M
15 °C 10 km+ 1.900 ft 190° 190° 6 kt METAR LFRC 130830Z AUTO 19006KT 9999 SCT014/// BKN019/// OVC028/// //////TCU 15/12 Q1015
10:00
M
15 °C 10 km+ 1.000 ft 230° 230° 3 kt METAR LFRC 130800Z AUTO 23003KT 200V260 9999 BKN010 BKN017 BKN024 15/12 Q1015
09:30
M
15 °C 10 km+ 1.300 ft 270° 270° 3 kt METAR LFRC 130730Z AUTO 27003KT 230V310 9999 SCT008 BKN013 BKN049 15/13 Q1015
09:00
V
15 °C 10 km+ - Var Var 2 kt METAR LFRC 130700Z AUTO VRB02KT CAVOK 15/14 Q1015
08:30
V
14 °C 10 km+ - Var Var 3 kt METAR LFRC 130630Z AUTO VRB03KT CAVOK 14/13 Q1015
08:00
V
15 °C 10 km+ 6.400 ft Var Var 3 kt METAR LFRC 130600Z AUTO VRB03KT 9999 FEW005 BKN064 OVC150 15/14 Q1015
07:30
I
13 °C 3,2 km - 300° 300° 3 kt METAR LFRC 130530Z AUTO 30003KT 3200 BR NSC 13/13 Q1015
07:00
L
12 °C 750 m - 260° 260° 2 kt METAR LFRC 130500Z AUTO 26002KT 1500 0750 R28/P2000 BCFG NSC 12/12 Q1015
06:30
L
12 °C 550 m - 270° 270° 3 kt METAR LFRC 130430Z AUTO 27003KT 1200 0550 R28/P2000 BCFG NSC 12/12 Q1015
06:00
L
12 °C 550 m 5.800 ft 280° 280° 2 kt METAR LFRC 130400Z AUTO 28002KT 0600 0550 R28/0650N FG FEW006 BKN058 BKN096 12/12 Q1015
05:30
L
11 °C 500 m 5.800 ft 270° 270° 2 kt METAR LFRC 130330Z AUTO 27002KT 0600 0500 R28/0900U FG SCT005 SCT011 BKN058 11/11 Q1015
05:00
I
12 °C 4,3 km 8.800 ft 310° 310° 3 kt METAR LFRC 130300Z AUTO 31003KT 4300 BR SCT007 SCT014 BKN088 12/12 Q1015
04:30
L
12 °C 600 m 6.400 ft 310° 310° 3 kt METAR LFRC 130230Z AUTO 31003KT 1300 0600 R28/0750D BCFG SCT007 BKN064 OVC088 12/12 Q1015
04:00
L
11 °C 500 m - 310° 310° 3 kt METAR LFRC 130200Z AUTO 31003KT 0600 0500 R28/0500D FG FEW005 SCT092 11/10 Q1015
03:30
I
12 °C 1,6 km - 330° 330° 3 kt METAR LFRC 130130Z AUTO 33003KT 4500 1600 BR NSC 12/11 Q1016
03:00
V
11 °C 10 km+ - 320° 320° 3 kt METAR LFRC 130100Z AUTO 32003KT CAVOK 11/11 Q1016
02:30
V
11 °C 10 km+ - 320° 320° 3 kt METAR LFRC 130030Z AUTO 32003KT CAVOK 11/11 Q1016
02:00
V
11 °C 10 km+ - 320° 320° 3 kt METAR LFRC 130000Z AUTO 32003KT 9999 FEW010 11/11 Q1016
01:30
V
11 °C 10 km+ 5.800 ft 320° 320° 3 kt METAR LFRC 122330Z AUTO 32003KT 9999 SCT010 BKN058 11/10 Q1016
01:00
M
11 °C 7 km - 290° 290° 1 kt METAR LFRC 122300Z AUTO 29001KT 7000 SCT013 11/11 Q1016
00:30
I
10 °C 2,8 km - 270° 270° 1 kt METAR LFRC 122230Z AUTO 27001KT 7000 2800 NSC 10/09 Q1017
00:00
V
11 °C 10 km+ - 360° 360° 0 kt METAR LFRC 122200Z AUTO 00000KT CAVOK 11/10 Q1017

12 luglio 2024

Tempo Codice Tempo meteorologico Temp. Vista Base nuvolosa Vento METAR/SPECI
23:30
V
12 °C 10 km+ 10.000 ft 360° 360° 0 kt METAR LFRC 122130Z AUTO 00000KT 9999 FEW001 BKN100 12/11 Q1017
23:00
V
13 °C 10 km+ - 150° 150° 1 kt METAR LFRC 122100Z AUTO 15001KT CAVOK 13/12 Q1017
22:30
V
13 °C 10 km+ - 040° 040° 1 kt METAR LFRC 122030Z AUTO 04001KT CAVOK 13/11 Q1017
22:00
V
14 °C 10 km+ - 060° 060° 2 kt METAR LFRC 122000Z AUTO 06002KT CAVOK 14/12 Q1016
21:30
V
15 °C 10 km+ - 050° 050° 2 kt METAR LFRC 121930Z AUTO 05002KT CAVOK 15/12 Q1016
21:00
V
15 °C 10 km+ - 040° 040° 3 kt METAR LFRC 121900Z AUTO 04003KT CAVOK 15/12 Q1016
20:30
V
16 °C 10 km+ 14.000 ft 040° 040° 4 kt METAR LFRC 121830Z AUTO 04004KT 020V080 9999 FEW019 SCT088 BKN140 16/11 Q1016
20:00
V
16 °C 10 km+ 8.000 ft 060° 060° 4 kt METAR LFRC 121800Z AUTO 06004KT 350V100 9999 FEW020 BKN080 BKN130 16/11 Q1016
19:30
V
17 °C 10 km+ 15.000 ft 070° 070° 4 kt METAR LFRC 121730Z AUTO 07004KT 010V110 9999 FEW021 BKN150 17/10 Q1016 TEMPO 4000 SHRA BKN012 BKN030TCU
19:00
V
16 °C 10 km+ - 080° 080° 4 kt METAR LFRC 121700Z AUTO 08004KT 030V140 9999 FEW015 SCT020 16/11 Q1016 TEMPO 4000 SHRA BKN012 BKN030TCU
18:30
M
16 °C 10 km+ 2.200 ft 080° 080° 5 kt METAR LFRC 121630Z AUTO 08005KT 050V110 9999 SCT015 BKN022 BKN090 16/12 Q1017 TEMPO 4000 SHRA BKN012 BKN030TCU
18:00
M
18 °C 10 km+ 1.400 ft 070° 070° 7 kt METAR LFRC 121600Z AUTO 07007KT 030V100 9999 BKN014 OVC082 18/14 Q1017 TEMPO 2000 BKN008 BKN025CB
17:30
V
16 °C 10 km+ 7.800 ft 050° 050° 7 kt METAR LFRC 121530Z AUTO 05007KT 020V080 9999 SCT015 BKN078 OVC150 16/12 Q1017 TEMPO 2000 BKN008 BKN025CB
17:00
V
16 °C 10 km+ 14.000 ft 060° 060° 7 kt METAR LFRC 121500Z AUTO 06007KT 030V090 9999 FEW014 SCT076 OVC140 16/13 Q1017 TEMPO 2000 BKN008 BKN025CB
16:30
M
16 °C 10 km+ 1.500 ft 040° 040° 7 kt METAR LFRC 121430Z AUTO 04007KT 010V080 9999 BKN015/// BKN070/// OVC140/// ///TCU 16/13 Q1017 TEMPO 2000 BKN008 BKN025CB
16:00
M
16 °C 10 km+ 1.900 ft 060° 060° 7 kt METAR LFRC 121400Z AUTO 06007KT 020V090 9999 FEW014/// BKN019/// BKN080/// ///TCU 16/11 Q1017 TEMPO 3000 SHRA BKN008 BKN020CB
15:30
M
16 °C 10 km+ 1.400 ft 070° 070° 8 kt METAR LFRC 121330Z AUTO 07008KT 040V100 9999 BKN014/// BKN019/// BKN070/// ///TCU 16/13 Q1017 TEMPO 3000 SHRA BKN008 BKN020CB
15:00
V
16 °C 10 km+ 5.800 ft 060° 060° 8 kt METAR LFRC 121300Z AUTO 06008KT 9999 SCT016/// OVC058/// ///CB 16/12 Q1016 TEMPO 3000 SHRA BKN008 BKN020CB
14:30
V
16 °C 10 km+ - 060° 060° 9 kt METAR LFRC 121230Z AUTO 06009KT 030V090 9999 TS //////CB 16/12 Q1016 TEMPO 3000 SHRA BKN008 BKN020CB
14:00
V
16 °C 10 km+ 6.800 ft 050° 050° 10 kt METAR LFRC 121200Z AUTO 05010KT 9999 VCTS FEW018/// SCT054/// BKN068/// ///CB 16/12 Q1016 TEMPO 3000 SHRA BKN008 BKN020CB
13:30
M
17 °C 10 km+ 2.400 ft 040° 040° 9 kt METAR LFRC 121130Z AUTO 04009KT 010V070 9999 VCTS SCT018/// BKN024/// BKN037/// ///CB 17/13 Q1016 TEMPO 3000 SHRA BKN008 BKN020CB
13:00
M
17 °C 10 km+ 1.700 ft 010° 010° 7 kt METAR LFRC 121100Z AUTO 01007KT 320V040 9999 FEW011/// BKN017/// BKN024/// ///CB 17/13 Q1016 TEMPO 3000 SHRA BKN012
12:30
V
19 °C 10 km+ - 290° 290° 5 kt METAR LFRC 121030Z AUTO 29005KT 240V360 9999 SCT024 SCT033 19/15 Q1016 TEMPO 3000 SHRA BKN020CB
12:00
V
20 °C 10 km+ - 070° 070° 3 kt METAR LFRC 121000Z AUTO 07003KT 360V160 9999 FEW017 20/14 Q1015 TEMPO 3000 SHRA BKN020CB
11:30
M
17 °C 10 km+ 1.500 ft Var Var 3 kt METAR LFRC 120930Z AUTO VRB03KT 9999 BKN015 BKN064 17/13 Q1015 TEMPO 3000 SHRA BKN020CB
11:00
V
17 °C 10 km+ 5.600 ft 280° 280° 5 kt METAR LFRC 120900Z AUTO 28005KT 240V320 9999 FEW011 SCT025 BKN056 17/14 Q1015 TEMPO 3000 SHRA BKN020CB BECMG 04010KT
10:30
M
17 °C 10 km+ 1.000 ft 180° 180° 3 kt METAR LFRC 120830Z AUTO 18003KT 090V230 9999 BKN010 BKN017 17/14 Q1015 TEMPO 3000 SHRA BKN020CB
10:00
I
16 °C 10 km+ 500 ft 180° 180° 4 kt METAR LFRC 120800Z AUTO 18004KT 130V220 9999 BKN005 BKN015 OVC021 16/14 Q1015 TEMPO 3000 SHRA BKN012 BKN020CB BECMG 04010KT
09:30
I
14 °C 10 km+ 600 ft 150° 150° 5 kt METAR LFRC 120730Z AUTO 15005KT 9999 BKN006 OVC010 14/14 Q1015 TEMPO 3000 SHRA BKN012 BKN020CB BECMG 04010KT
09:00
I
14 °C 10 km+ 500 ft 170° 170° 4 kt METAR LFRC 120700Z AUTO 17004KT 140V220 9999 OVC005 14/14 Q1015 TEMPO 3000 SHRA BKN012 BKN020CB
08:30
L
15 °C 10 km+ 400 ft 270° 270° 5 kt METAR LFRC 120630Z AUTO 27005KT 240V300 9999 OVC004 15/14 Q1015 TEMPO 3000 SHRA BKN012 BKN020CB
08:00
I
15 °C 10 km+ 600 ft 280° 280° 6 kt METAR LFRC 120600Z AUTO 28006KT 9999 OVC006 15/14 Q1015 BECMG BKN020
Segnala modifiche